sensor_id;sensor_type;location;lat;lon;timestamp;P1;durP1;ratioP1;P2;durP2;ratioP2
38397;SDS011;24179;52.094;4.408;2024-01-15T00:01:22;9.33;;;2.90;;
38397;SDS011;24179;52.094;4.408;2024-01-15T00:04:22;12.73;;;3.20;;
38397;SDS011;24179;52.094;4.408;2024-01-15T00:07:23;8.43;;;2.67;;
38397;SDS011;24179;52.094;4.408;2024-01-15T00:10:23;17.07;;;3.13;;
38397;SDS011;24179;52.094;4.408;2024-01-15T00:13:24;18.17;;;3.60;;
38397;SDS011;24179;52.094;4.408;2024-01-15T00:16:25;14.17;;;3.30;;
38397;SDS011;24179;52.094;4.408;2024-01-15T00:19:25;10.40;;;2.72;;
38397;SDS011;24179;52.094;4.408;2024-01-15T00:22:27;12.75;;;3.35;;
38397;SDS011;24179;52.094;4.408;2024-01-15T00:25:27;15.83;;;3.43;;
38397;SDS011;24179;52.094;4.408;2024-01-15T00:28:28;19.50;;;3.63;;
38397;SDS011;24179;52.094;4.408;2024-01-15T00:31:29;17.40;;;3.47;;
38397;SDS011;24179;52.094;4.408;2024-01-15T00:34:30;10.05;;;2.92;;
38397;SDS011;24179;52.094;4.408;2024-01-15T00:37:30;18.80;;;3.67;;
38397;SDS011;24179;52.094;4.408;2024-01-15T00:40:31;16.17;;;3.07;;
38397;SDS011;24179;52.094;4.408;2024-01-15T00:43:31;14.00;;;3.10;;
38397;SDS011;24179;52.094;4.408;2024-01-15T00:46:32;11.77;;;3.27;;
38397;SDS011;24179;52.094;4.408;2024-01-15T00:49:33;11.40;;;3.30;;
38397;SDS011;24179;52.094;4.408;2024-01-15T00:52:33;19.07;;;3.00;;
38397;SDS011;24179;52.094;4.408;2024-01-15T00:55:34;13.87;;;3.07;;
38397;SDS011;24179;52.094;4.408;2024-01-15T00:58:36;9.80;;;2.75;;
38397;SDS011;24179;52.094;4.408;2024-01-15T01:01:36;12.77;;;3.83;;
38397;SDS011;24179;52.094;4.408;2024-01-15T01:04:38;10.43;;;3.22;;
38397;SDS011;24179;52.094;4.408;2024-01-15T01:07:38;12.60;;;2.97;;
38397;SDS011;24179;52.094;4.408;2024-01-15T01:10:39;11.03;;;3.00;;
38397;SDS011;24179;52.094;4.408;2024-01-15T01:13:39;9.47;;;2.90;;
38397;SDS011;24179;52.094;4.408;2024-01-15T01:16:40;15.40;;;3.00;;
38397;SDS011;24179;52.094;4.408;2024-01-15T01:19:41;9.70;;;3.23;;
38397;SDS011;24179;52.094;4.408;2024-01-15T01:22:41;9.57;;;3.00;;
38397;SDS011;24179;52.094;4.408;2024-01-15T01:25:42;12.40;;;3.10;;
38397;SDS011;24179;52.094;4.408;2024-01-15T01:28:42;12.30;;;3.03;;
38397;SDS011;24179;52.094;4.408;2024-01-15T01:31:43;7.90;;;2.93;;
38397;SDS011;24179;52.094;4.408;2024-01-15T01:34:44;11.10;;;2.70;;
38397;SDS011;24179;52.094;4.408;2024-01-15T01:37:45;11.40;;;2.47;;
38397;SDS011;24179;52.094;4.408;2024-01-15T01:40:46;7.27;;;2.97;;
38397;SDS011;24179;52.094;4.408;2024-01-15T01:43:46;8.50;;;2.53;;
38397;SDS011;24179;52.094;4.408;2024-01-15T01:46:47;4.23;;;2.50;;
38397;SDS011;24179;52.094;4.408;2024-01-15T01:49:47;13.40;;;2.88;;
38397;SDS011;24179;52.094;4.408;2024-01-15T01:52:48;10.07;;;2.63;;
38397;SDS011;24179;52.094;4.408;2024-01-15T01:55:49;9.98;;;2.42;;
38397;SDS011;24179;52.094;4.408;2024-01-15T02:01:51;7.00;;;2.50;;
38397;SDS011;24179;52.094;4.408;2024-01-15T02:04:54;10.80;;;2.65;;
38397;SDS011;24179;52.094;4.408;2024-01-15T02:07:55;8.47;;;2.60;;
38397;SDS011;24179;52.094;4.408;2024-01-15T02:10:56;7.07;;;2.50;;
38397;SDS011;24179;52.094;4.408;2024-01-15T02:13:56;7.97;;;2.57;;
38397;SDS011;24179;52.094;4.408;2024-01-15T02:16:57;5.40;;;2.47;;
38397;SDS011;24179;52.094;4.408;2024-01-15T02:19:57;3.50;;;2.87;;
38397;SDS011;24179;52.094;4.408;2024-01-15T02:23:08;7.57;;;2.63;;
38397;SDS011;24179;52.094;4.408;2024-01-15T02:26:12;5.35;;;2.25;;
38397;SDS011;24179;52.094;4.408;2024-01-15T02:29:13;7.72;;;2.85;;
38397;SDS011;24179;52.094;4.408;2024-01-15T02:35:15;10.17;;;2.80;;
38397;SDS011;24179;52.094;4.408;2024-01-15T02:38:16;6.00;;;2.70;;
38397;SDS011;24179;52.094;4.408;2024-01-15T02:41:17;8.18;;;3.00;;
38397;SDS011;24179;52.094;4.408;2024-01-15T02:44:17;5.13;;;2.73;;
38397;SDS011;24179;52.094;4.408;2024-01-15T02:47:18;14.43;;;2.87;;
38397;SDS011;24179;52.094;4.408;2024-01-15T02:50:18;13.07;;;2.70;;
38397;SDS011;24179;52.094;4.408;2024-01-15T02:53:19;6.00;;;2.67;;
38397;SDS011;24179;52.094;4.408;2024-01-15T02:56:20;11.47;;;2.83;;
38397;SDS011;24179;52.094;4.408;2024-01-15T02:59:20;15.70;;;4.10;;
38397;SDS011;24179;52.094;4.408;2024-01-15T03:02:21;15.70;;;3.37;;
38397;SDS011;24179;52.094;4.408;2024-01-15T03:05:22;17.38;;;3.22;;
38397;SDS011;24179;52.094;4.408;2024-01-15T03:08:22;7.13;;;2.33;;
38397;SDS011;24179;52.094;4.408;2024-01-15T03:11:23;15.10;;;2.70;;
38397;SDS011;24179;52.094;4.408;2024-01-15T03:14:23;10.37;;;2.87;;
38397;SDS011;24179;52.094;4.408;2024-01-15T03:17:26;16.83;;;3.13;;
38397;SDS011;24179;52.094;4.408;2024-01-15T03:20:26;12.00;;;2.97;;
38397;SDS011;24179;52.094;4.408;2024-01-15T03:23:27;7.77;;;2.53;;
38397;SDS011;24179;52.094;4.408;2024-01-15T03:26:27;11.07;;;2.50;;
38397;SDS011;24179;52.094;4.408;2024-01-15T03:29:28;6.43;;;2.80;;
38397;SDS011;24179;52.094;4.408;2024-01-15T03:32:29;14.37;;;2.60;;
38397;SDS011;24179;52.094;4.408;2024-01-15T03:35:29;7.50;;;2.57;;
38397;SDS011;24179;52.094;4.408;2024-01-15T03:38:30;5.43;;;2.60;;
38397;SDS011;24179;52.094;4.408;2024-01-15T03:41:31;12.30;;;2.50;;
38397;SDS011;24179;52.094;4.408;2024-01-15T03:44:32;4.38;;;2.10;;
38397;SDS011;24179;52.094;4.408;2024-01-15T03:47:32;4.90;;;2.27;;
38397;SDS011;24179;52.094;4.408;2024-01-15T03:50:33;9.20;;;2.40;;
38397;SDS011;24179;52.094;4.408;2024-01-15T03:53:34;4.03;;;2.30;;
38397;SDS011;24179;52.094;4.408;2024-01-15T03:56:34;4.30;;;2.30;;
38397;SDS011;24179;52.094;4.408;2024-01-15T03:59:35;2.37;;;2.17;;
38397;SDS011;24179;52.094;4.408;2024-01-15T04:02:36;3.80;;;2.33;;
38397;SDS011;24179;52.094;4.408;2024-01-15T04:05:36;4.80;;;2.47;;
38397;SDS011;24179;52.094;4.408;2024-01-15T04:08:38;2.72;;;2.50;;
38397;SDS011;24179;52.094;4.408;2024-01-15T04:11:39;6.13;;;2.63;;
38397;SDS011;24179;52.094;4.408;2024-01-15T04:14:40;11.25;;;2.70;;
38397;SDS011;24179;52.094;4.408;2024-01-15T04:17:40;4.57;;;2.77;;
38397;SDS011;24179;52.094;4.408;2024-01-15T04:20:41;7.43;;;2.50;;
38397;SDS011;24179;52.094;4.408;2024-01-15T04:23:42;7.70;;;2.80;;
38397;SDS011;24179;52.094;4.408;2024-01-15T04:26:43;7.18;;;2.70;;
38397;SDS011;24179;52.094;4.408;2024-01-15T04:29:43;7.60;;;2.85;;
38397;SDS011;24179;52.094;4.408;2024-01-15T04:32:44;10.00;;;3.00;;
38397;SDS011;24179;52.094;4.408;2024-01-15T04:35:45;4.77;;;2.60;;
38397;SDS011;24179;52.094;4.408;2024-01-15T04:38:45;11.73;;;3.10;;
38397;SDS011;24179;52.094;4.408;2024-01-15T04:41:46;4.37;;;2.77;;
38397;SDS011;24179;52.094;4.408;2024-01-15T04:44:47;8.83;;;2.73;;
38397;SDS011;24179;52.094;4.408;2024-01-15T04:47:47;3.90;;;3.10;;
38397;SDS011;24179;52.094;4.408;2024-01-15T04:50:48;8.70;;;3.45;;
38397;SDS011;24179;52.094;4.408;2024-01-15T04:53:49;12.47;;;3.37;;
38397;SDS011;24179;52.094;4.408;2024-01-15T04:56:50;8.10;;;3.23;;
38397;SDS011;24179;52.094;4.408;2024-01-15T04:59:50;10.77;;;3.40;;
38397;SDS011;24179;52.094;4.408;2024-01-15T05:02:51;6.73;;;2.90;;
38397;SDS011;24179;52.094;4.408;2024-01-15T05:05:51;7.97;;;3.37;;
38397;SDS011;24179;52.094;4.408;2024-01-15T05:08:52;9.03;;;3.20;;
38397;SDS011;24179;52.094;4.408;2024-01-15T05:11:52;6.50;;;3.50;;
38397;SDS011;24179;52.094;4.408;2024-01-15T05:14:53;9.67;;;3.10;;
38397;SDS011;24179;52.094;4.408;2024-01-15T05:17:54;10.80;;;3.63;;
38397;SDS011;24179;52.094;4.408;2024-01-15T05:20:54;5.40;;;3.00;;
38397;SDS011;24179;52.094;4.408;2024-01-15T05:23:55;8.43;;;3.60;;
38397;SDS011;24179;52.094;4.408;2024-01-15T05:26:55;6.03;;;3.90;;
38397;SDS011;24179;52.094;4.408;2024-01-15T05:29:56;8.93;;;3.33;;
38397;SDS011;24179;52.094;4.408;2024-01-15T05:32:56;10.43;;;3.63;;
38397;SDS011;24179;52.094;4.408;2024-01-15T05:35:57;7.63;;;3.35;;
38397;SDS011;24179;52.094;4.408;2024-01-15T05:38:58;15.60;;;3.08;;
38397;SDS011;24179;52.094;4.408;2024-01-15T05:41:59;6.20;;;3.27;;
38397;SDS011;24179;52.094;4.408;2024-01-15T05:45:00;14.05;;;3.72;;
38397;SDS011;24179;52.094;4.408;2024-01-15T05:48:03;10.43;;;3.40;;
38397;SDS011;24179;52.094;4.408;2024-01-15T05:51:04;8.70;;;3.50;;
38397;SDS011;24179;52.094;4.408;2024-01-15T05:54:05;9.13;;;3.97;;
38397;SDS011;24179;52.094;4.408;2024-01-15T05:57:06;9.55;;;4.13;;
38397;SDS011;24179;52.094;4.408;2024-01-15T06:00:06;11.57;;;4.23;;
38397;SDS011;24179;52.094;4.408;2024-01-15T06:03:08;10.68;;;3.40;;
38397;SDS011;24179;52.094;4.408;2024-01-15T06:06:09;13.70;;;4.07;;
38397;SDS011;24179;52.094;4.408;2024-01-15T06:09:10;5.03;;;3.57;;
38397;SDS011;24179;52.094;4.408;2024-01-15T06:12:10;9.80;;;3.57;;
38397;SDS011;24179;52.094;4.408;2024-01-15T06:15:11;8.93;;;3.20;;
38397;SDS011;24179;52.094;4.408;2024-01-15T06:21:13;4.77;;;3.40;;
38397;SDS011;24179;52.094;4.408;2024-01-15T06:24:14;11.73;;;3.50;;
38397;SDS011;24179;52.094;4.408;2024-01-15T06:27:15;8.38;;;3.60;;
38397;SDS011;24179;52.094;4.408;2024-01-15T06:30:16;9.60;;;4.13;;
38397;SDS011;24179;52.094;4.408;2024-01-15T06:33:16;8.37;;;3.60;;
38397;SDS011;24179;52.094;4.408;2024-01-15T06:36:17;6.10;;;3.70;;
38397;SDS011;24179;52.094;4.408;2024-01-15T06:39:18;5.67;;;3.30;;
38397;SDS011;24179;52.094;4.408;2024-01-15T06:42:18;4.77;;;3.63;;
38397;SDS011;24179;52.094;4.408;2024-01-15T06:45:19;4.70;;;3.17;;
38397;SDS011;24179;52.094;4.408;2024-01-15T06:48:19;5.87;;;4.33;;
38397;SDS011;24179;52.094;4.408;2024-01-15T06:51:20;8.57;;;3.80;;
38397;SDS011;24179;52.094;4.408;2024-01-15T06:54:20;6.07;;;3.93;;
38397;SDS011;24179;52.094;4.408;2024-01-15T06:57:21;8.47;;;3.77;;
38397;SDS011;24179;52.094;4.408;2024-01-15T07:00:21;9.47;;;3.63;;
38397;SDS011;24179;52.094;4.408;2024-01-15T07:03:22;10.07;;;3.83;;
38397;SDS011;24179;52.094;4.408;2024-01-15T07:06:23;5.57;;;3.50;;
38397;SDS011;24179;52.094;4.408;2024-01-15T07:09:23;11.87;;;3.90;;
38397;SDS011;24179;52.094;4.408;2024-01-15T07:12:24;6.60;;;3.93;;
38397;SDS011;24179;52.094;4.408;2024-01-15T07:15:24;13.70;;;3.93;;
38397;SDS011;24179;52.094;4.408;2024-01-15T07:18:25;6.43;;;4.00;;
38397;SDS011;24179;52.094;4.408;2024-01-15T07:21:26;10.23;;;4.10;;
38397;SDS011;24179;52.094;4.408;2024-01-15T07:24:26;14.13;;;4.57;;
38397;SDS011;24179;52.094;4.408;2024-01-15T07:27:27;16.33;;;4.30;;
38397;SDS011;24179;52.094;4.408;2024-01-15T07:30:27;10.57;;;3.90;;
38397;SDS011;24179;52.094;4.408;2024-01-15T07:33:28;10.43;;;3.93;;
38397;SDS011;24179;52.094;4.408;2024-01-15T07:36:28;19.27;;;4.23;;
38397;SDS011;24179;52.094;4.408;2024-01-15T07:39:29;15.37;;;4.53;;
38397;SDS011;24179;52.094;4.408;2024-01-15T07:42:30;12.13;;;3.90;;
38397;SDS011;24179;52.094;4.408;2024-01-15T07:45:31;8.97;;;3.97;;
38397;SDS011;24179;52.094;4.408;2024-01-15T07:48:31;15.33;;;4.13;;
38397;SDS011;24179;52.094;4.408;2024-01-15T07:51:32;14.33;;;3.70;;
38397;SDS011;24179;52.094;4.408;2024-01-15T07:54:32;9.70;;;3.77;;
38397;SDS011;24179;52.094;4.408;2024-01-15T07:57:33;17.97;;;4.07;;
38397;SDS011;24179;52.094;4.408;2024-01-15T08:00:35;10.45;;;3.60;;
38397;SDS011;24179;52.094;4.408;2024-01-15T08:03:36;16.63;;;3.63;;
38397;SDS011;24179;52.094;4.408;2024-01-15T08:06:36;17.33;;;3.67;;
38397;SDS011;24179;52.094;4.408;2024-01-15T08:09:37;11.47;;;3.87;;
38397;SDS011;24179;52.094;4.408;2024-01-15T08:12:38;15.47;;;3.90;;
38397;SDS011;24179;52.094;4.408;2024-01-15T08:15:38;10.77;;;4.73;;
38397;SDS011;24179;52.094;4.408;2024-01-15T08:18:40;12.20;;;4.07;;
38397;SDS011;24179;52.094;4.408;2024-01-15T08:21:41;18.58;;;3.95;;
38397;SDS011;24179;52.094;4.408;2024-01-15T08:24:43;15.55;;;4.53;;
38397;SDS011;24179;52.094;4.408;2024-01-15T08:27:44;14.00;;;4.43;;
38397;SDS011;24179;52.094;4.408;2024-01-15T08:30:45;12.23;;;4.20;;
38397;SDS011;24179;52.094;4.408;2024-01-15T08:33:46;8.50;;;3.50;;
38397;SDS011;24179;52.094;4.408;2024-01-15T08:36:46;7.45;;;3.53;;
38397;SDS011;24179;52.094;4.408;2024-01-15T08:39:47;10.77;;;4.00;;
38397;SDS011;24179;52.094;4.408;2024-01-15T08:42:48;8.27;;;3.90;;
38397;SDS011;24179;52.094;4.408;2024-01-15T08:45:49;12.55;;;3.88;;
38397;SDS011;24179;52.094;4.408;2024-01-15T08:48:50;8.52;;;4.70;;
38397;SDS011;24179;52.094;4.408;2024-01-15T08:51:51;8.60;;;3.83;;
38397;SDS011;24179;52.094;4.408;2024-01-15T08:54:52;6.75;;;3.47;;
38397;SDS011;24179;52.094;4.408;2024-01-15T08:57:52;7.47;;;3.67;;
38397;SDS011;24179;52.094;4.408;2024-01-15T09:00:53;7.43;;;2.93;;
38397;SDS011;24179;52.094;4.408;2024-01-15T09:03:53;6.87;;;3.73;;
38397;SDS011;24179;52.094;4.408;2024-01-15T09:06:54;9.73;;;3.63;;
38397;SDS011;24179;52.094;4.408;2024-01-15T09:09:55;7.90;;;3.47;;
38397;SDS011;24179;52.094;4.408;2024-01-15T09:12:55;9.73;;;3.50;;
38397;SDS011;24179;52.094;4.408;2024-01-15T09:15:56;6.13;;;3.63;;
38397;SDS011;24179;52.094;4.408;2024-01-15T09:18:57;19.10;;;3.90;;
38397;SDS011;24179;52.094;4.408;2024-01-15T09:21:57;14.07;;;3.70;;
38397;SDS011;24179;52.094;4.408;2024-01-15T09:24:58;10.73;;;4.10;;
38397;SDS011;24179;52.094;4.408;2024-01-15T09:27:59;12.93;;;3.83;;
38397;SDS011;24179;52.094;4.408;2024-01-15T09:30:59;5.80;;;3.90;;
38397;SDS011;24179;52.094;4.408;2024-01-15T09:34:00;11.43;;;3.90;;
38397;SDS011;24179;52.094;4.408;2024-01-15T09:37:02;10.68;;;4.25;;
38397;SDS011;24179;52.094;4.408;2024-01-15T09:40:05;9.98;;;4.47;;
38397;SDS011;24179;52.094;4.408;2024-01-15T09:43:08;14.88;;;3.60;;
38397;SDS011;24179;52.094;4.408;2024-01-15T09:46:09;5.90;;;3.30;;
38397;SDS011;24179;52.094;4.408;2024-01-15T09:49:10;8.85;;;3.38;;
38397;SDS011;24179;52.094;4.408;2024-01-15T09:52:11;11.93;;;3.58;;
38397;SDS011;24179;52.094;4.408;2024-01-15T09:55:12;7.90;;;3.63;;
38397;SDS011;24179;52.094;4.408;2024-01-15T09:58:15;8.55;;;3.38;;
38397;SDS011;24179;52.094;4.408;2024-01-15T10:01:15;12.50;;;4.00;;
38397;SDS011;24179;52.094;4.408;2024-01-15T10:07:17;12.40;;;3.57;;
38397;SDS011;24179;52.094;4.408;2024-01-15T10:10:19;10.00;;;3.63;;
38397;SDS011;24179;52.094;4.408;2024-01-15T10:13:22;9.35;;;3.20;;
38397;SDS011;24179;52.094;4.408;2024-01-15T10:16:22;11.63;;;3.45;;
38397;SDS011;24179;52.094;4.408;2024-01-15T10:19:23;9.57;;;3.88;;
38397;SDS011;24179;52.094;4.408;2024-01-15T10:22:24;4.10;;;3.20;;
38397;SDS011;24179;52.094;4.408;2024-01-15T10:25:25;8.65;;;3.90;;
38397;SDS011;24179;52.094;4.408;2024-01-15T10:28:26;7.17;;;4.10;;
38397;SDS011;24179;52.094;4.408;2024-01-15T10:31:27;12.55;;;4.50;;
38397;SDS011;24179;52.094;4.408;2024-01-15T10:34:30;6.07;;;3.72;;
38397;SDS011;24179;52.094;4.408;2024-01-15T10:37:34;9.35;;;4.10;;
38397;SDS011;24179;52.094;4.408;2024-01-15T10:40:34;9.40;;;4.25;;
38397;SDS011;24179;52.094;4.408;2024-01-15T10:43:35;7.10;;;4.20;;
38397;SDS011;24179;52.094;4.408;2024-01-15T10:46:35;10.43;;;4.30;;
38397;SDS011;24179;52.094;4.408;2024-01-15T10:49:37;12.90;;;4.20;;
38397;SDS011;24179;52.094;4.408;2024-01-15T10:52:39;12.15;;;3.50;;
38397;SDS011;24179;52.094;4.408;2024-01-15T10:55:41;10.18;;;4.05;;
38397;SDS011;24179;52.094;4.408;2024-01-15T10:58:42;9.95;;;4.20;;
38397;SDS011;24179;52.094;4.408;2024-01-15T11:01:43;9.25;;;3.70;;
38397;SDS011;24179;52.094;4.408;2024-01-15T11:04:46;9.30;;;4.18;;
38397;SDS011;24179;52.094;4.408;2024-01-15T11:07:46;10.47;;;4.00;;
38397;SDS011;24179;52.094;4.408;2024-01-15T11:10:51;10.60;;;3.90;;
38397;SDS011;24179;52.094;4.408;2024-01-15T11:13:52;8.50;;;3.80;;
38397;SDS011;24179;52.094;4.408;2024-01-15T11:16:53;9.33;;;4.00;;
38397;SDS011;24179;52.094;4.408;2024-01-15T11:19:59;11.80;;;3.97;;
38397;SDS011;24179;52.094;4.408;2024-01-15T11:22:59;9.87;;;3.80;;
38397;SDS011;24179;52.094;4.408;2024-01-15T11:26:00;8.50;;;3.50;;
38397;SDS011;24179;52.094;4.408;2024-01-15T11:29:10;8.70;;;3.87;;
38397;SDS011;24179;52.094;4.408;2024-01-15T11:32:33;5.32;;;3.50;;
38397;SDS011;24179;52.094;4.408;2024-01-15T11:35:49;12.63;;;3.58;;
38397;SDS011;24179;52.094;4.408;2024-01-15T11:38:50;9.73;;;3.78;;
38397;SDS011;24179;52.094;4.408;2024-01-15T11:41:51;7.00;;;3.87;;
38397;SDS011;24179;52.094;4.408;2024-01-15T11:44:51;15.55;;;4.10;;
38397;SDS011;24179;52.094;4.408;2024-01-15T11:48:13;15.15;;;4.13;;
38397;SDS011;24179;52.094;4.408;2024-01-15T11:51:14;15.35;;;4.28;;
38397;SDS011;24179;52.094;4.408;2024-01-15T11:54:18;16.08;;;4.40;;
38397;SDS011;24179;52.094;4.408;2024-01-15T11:57:22;18.20;;;4.97;;
38397;SDS011;24179;52.094;4.408;2024-01-15T12:00:50;13.73;;;4.32;;
38397;SDS011;24179;52.094;4.408;2024-01-15T12:03:52;16.42;;;4.70;;
38397;SDS011;24179;52.094;4.408;2024-01-15T12:06:53;13.93;;;5.35;;
38397;SDS011;24179;52.094;4.408;2024-01-15T12:09:53;20.67;;;4.37;;
38397;SDS011;24179;52.094;4.408;2024-01-15T12:15:59;15.60;;;5.45;;
38397;SDS011;24179;52.094;4.408;2024-01-15T12:19:02;10.43;;;4.53;;
38397;SDS011;24179;52.094;4.408;2024-01-15T12:22:03;9.40;;;3.80;;
38397;SDS011;24179;52.094;4.408;2024-01-15T12:25:04;15.55;;;5.03;;
38397;SDS011;24179;52.094;4.408;2024-01-15T12:28:05;14.90;;;3.93;;
38397;SDS011;24179;52.094;4.408;2024-01-15T12:31:06;11.10;;;3.90;;
38397;SDS011;24179;52.094;4.408;2024-01-15T12:34:06;14.03;;;4.13;;
38397;SDS011;24179;52.094;4.408;2024-01-15T12:37:07;15.37;;;3.90;;
38397;SDS011;24179;52.094;4.408;2024-01-15T12:40:08;15.40;;;3.63;;
38397;SDS011;24179;52.094;4.408;2024-01-15T12:43:10;13.80;;;3.88;;
38397;SDS011;24179;52.094;4.408;2024-01-15T12:46:11;11.33;;;4.10;;
38397;SDS011;24179;52.094;4.408;2024-01-15T12:49:12;11.37;;;3.60;;
38397;SDS011;24179;52.094;4.408;2024-01-15T12:52:13;10.65;;;3.97;;
38397;SDS011;24179;52.094;4.408;2024-01-15T12:55:14;12.00;;;4.50;;
38397;SDS011;24179;52.094;4.408;2024-01-15T12:58:15;14.55;;;4.90;;
38397;SDS011;24179;52.094;4.408;2024-01-15T13:01:15;14.33;;;4.83;;
38397;SDS011;24179;52.094;4.408;2024-01-15T13:04:22;15.32;;;4.30;;
38397;SDS011;24179;52.094;4.408;2024-01-15T13:07:23;16.48;;;4.20;;
38397;SDS011;24179;52.094;4.408;2024-01-15T13:10:24;9.40;;;3.97;;
38397;SDS011;24179;52.094;4.408;2024-01-15T13:13:25;12.77;;;3.97;;
38397;SDS011;24179;52.094;4.408;2024-01-15T13:16:25;14.03;;;4.30;;
38397;SDS011;24179;52.094;4.408;2024-01-15T13:19:29;9.98;;;3.58;;
38397;SDS011;24179;52.094;4.408;2024-01-15T13:22:29;10.20;;;4.10;;
38397;SDS011;24179;52.094;4.408;2024-01-15T13:25:32;8.02;;;3.65;;
38397;SDS011;24179;52.094;4.408;2024-01-15T13:28:35;13.30;;;4.47;;
38397;SDS011;24179;52.094;4.408;2024-01-15T13:31:36;16.00;;;4.03;;
38397;SDS011;24179;52.094;4.408;2024-01-15T13:34:38;12.85;;;4.72;;
38397;SDS011;24179;52.094;4.408;2024-01-15T13:37:39;12.90;;;4.50;;
38397;SDS011;24179;52.094;4.408;2024-01-15T13:40:41;16.15;;;4.50;;
38397;SDS011;24179;52.094;4.408;2024-01-15T13:43:43;10.35;;;5.07;;
38397;SDS011;24179;52.094;4.408;2024-01-15T13:46:43;12.52;;;4.40;;
38397;SDS011;24179;52.094;4.408;2024-01-15T13:49:44;13.27;;;4.27;;
38397;SDS011;24179;52.094;4.408;2024-01-15T13:52:44;17.03;;;4.90;;
38397;SDS011;24179;52.094;4.408;2024-01-15T13:55:45;13.40;;;5.67;;
38397;SDS011;24179;52.094;4.408;2024-01-15T13:58:45;14.53;;;4.73;;
38397;SDS011;24179;52.094;4.408;2024-01-15T14:01:47;23.00;;;5.85;;
38397;SDS011;24179;52.094;4.408;2024-01-15T14:04:48;20.60;;;4.87;;
38397;SDS011;24179;52.094;4.408;2024-01-15T14:07:49;16.70;;;5.20;;
38397;SDS011;24179;52.094;4.408;2024-01-15T14:10:50;12.50;;;5.60;;
38397;SDS011;24179;52.094;4.408;2024-01-15T14:13:50;13.32;;;5.00;;
38397;SDS011;24179;52.094;4.408;2024-01-15T14:16:51;16.10;;;5.57;;
38397;SDS011;24179;52.094;4.408;2024-01-15T14:19:51;15.87;;;5.00;;
38397;SDS011;24179;52.094;4.408;2024-01-15T14:22:52;15.53;;;5.00;;
38397;SDS011;24179;52.094;4.408;2024-01-15T14:28:54;12.73;;;6.10;;
38397;SDS011;24179;52.094;4.408;2024-01-15T14:31:55;24.53;;;5.73;;
38397;SDS011;24179;52.094;4.408;2024-01-15T14:34:55;17.60;;;5.77;;
38397;SDS011;24179;52.094;4.408;2024-01-15T14:37:56;19.42;;;5.38;;
38397;SDS011;24179;52.094;4.408;2024-01-15T14:40:59;18.38;;;4.95;;
38397;SDS011;24179;52.094;4.408;2024-01-15T14:44:00;10.55;;;4.85;;
38397;SDS011;24179;52.094;4.408;2024-01-15T14:47:01;18.97;;;5.43;;
38397;SDS011;24179;52.094;4.408;2024-01-15T14:50:03;13.23;;;4.82;;
38397;SDS011;24179;52.094;4.408;2024-01-15T14:53:05;16.08;;;5.57;;
38397;SDS011;24179;52.094;4.408;2024-01-15T14:56:06;20.23;;;5.85;;
38397;SDS011;24179;52.094;4.408;2024-01-15T14:59:09;15.80;;;4.90;;
38397;SDS011;24179;52.094;4.408;2024-01-15T15:02:10;10.07;;;4.50;;
38397;SDS011;24179;52.094;4.408;2024-01-15T15:05:11;10.48;;;4.60;;
38397;SDS011;24179;52.094;4.408;2024-01-15T15:08:13;6.70;;;5.30;;
38397;SDS011;24179;52.094;4.408;2024-01-15T15:11:14;7.75;;;4.20;;
38397;SDS011;24179;52.094;4.408;2024-01-15T15:14:14;10.23;;;4.33;;
38397;SDS011;24179;52.094;4.408;2024-01-15T15:17:15;9.40;;;4.13;;
38397;SDS011;24179;52.094;4.408;2024-01-15T15:20:16;18.03;;;4.37;;
38397;SDS011;24179;52.094;4.408;2024-01-15T15:23:17;7.13;;;3.57;;
38397;SDS011;24179;52.094;4.408;2024-01-15T15:26:18;11.02;;;4.55;;
38397;SDS011;24179;52.094;4.408;2024-01-15T15:29:18;11.63;;;4.30;;
38397;SDS011;24179;52.094;4.408;2024-01-15T15:32:19;10.30;;;4.80;;
38397;SDS011;24179;52.094;4.408;2024-01-15T15:35:20;11.60;;;4.00;;
38397;SDS011;24179;52.094;4.408;2024-01-15T15:38:21;9.77;;;4.30;;
38397;SDS011;24179;52.094;4.408;2024-01-15T15:41:22;16.90;;;4.20;;
38397;SDS011;24179;52.094;4.408;2024-01-15T15:44:25;11.75;;;4.60;;
38397;SDS011;24179;52.094;4.408;2024-01-15T15:47:26;14.90;;;4.40;;
38397;SDS011;24179;52.094;4.408;2024-01-15T15:50:27;14.83;;;4.07;;
38397;SDS011;24179;52.094;4.408;2024-01-15T15:53:27;8.57;;;4.30;;
38397;SDS011;24179;52.094;4.408;2024-01-15T15:56:28;8.10;;;4.50;;
38397;SDS011;24179;52.094;4.408;2024-01-15T15:59:29;11.63;;;5.03;;
38397;SDS011;24179;52.094;4.408;2024-01-15T16:02:30;13.23;;;5.22;;
38397;SDS011;24179;52.094;4.408;2024-01-15T16:05:30;10.73;;;4.73;;
38397;SDS011;24179;52.094;4.408;2024-01-15T16:08:31;8.53;;;4.60;;
38397;SDS011;24179;52.094;4.408;2024-01-15T16:11:31;10.20;;;4.93;;
38397;SDS011;24179;52.094;4.408;2024-01-15T16:14:32;20.70;;;4.93;;
38397;SDS011;24179;52.094;4.408;2024-01-15T16:17:33;10.53;;;4.87;;
38397;SDS011;24179;52.094;4.408;2024-01-15T16:20:33;18.30;;;4.93;;
38397;SDS011;24179;52.094;4.408;2024-01-15T16:23:34;15.17;;;5.23;;
38397;SDS011;24179;52.094;4.408;2024-01-15T16:26:34;16.07;;;5.00;;
38397;SDS011;24179;52.094;4.408;2024-01-15T16:29:35;18.40;;;4.35;;
38397;SDS011;24179;52.094;4.408;2024-01-15T16:32:35;16.37;;;4.20;;
38397;SDS011;24179;52.094;4.408;2024-01-15T16:35:36;10.37;;;4.10;;
38397;SDS011;24179;52.094;4.408;2024-01-15T16:38:37;13.23;;;3.80;;
38397;SDS011;24179;52.094;4.408;2024-01-15T16:41:37;13.33;;;4.90;;
38397;SDS011;24179;52.094;4.408;2024-01-15T16:44:38;8.43;;;4.40;;
38397;SDS011;24179;52.094;4.408;2024-01-15T16:47:39;12.40;;;4.50;;
38397;SDS011;24179;52.094;4.408;2024-01-15T16:50:40;10.93;;;4.40;;
38397;SDS011;24179;52.094;4.408;2024-01-15T16:53:40;19.13;;;4.23;;
38397;SDS011;24179;52.094;4.408;2024-01-15T16:56:41;12.97;;;4.10;;
38397;SDS011;24179;52.094;4.408;2024-01-15T16:59:41;10.70;;;4.43;;
38397;SDS011;24179;52.094;4.408;2024-01-15T17:02:42;8.63;;;3.90;;
38397;SDS011;24179;52.094;4.408;2024-01-15T17:05:43;17.07;;;4.70;;
38397;SDS011;24179;52.094;4.408;2024-01-15T17:08:43;11.60;;;4.40;;
38397;SDS011;24179;52.094;4.408;2024-01-15T17:11:44;11.73;;;4.20;;
38397;SDS011;24179;52.094;4.408;2024-01-15T17:14:44;18.83;;;4.90;;
38397;SDS011;24179;52.094;4.408;2024-01-15T17:17:45;15.03;;;4.87;;
38397;SDS011;24179;52.094;4.408;2024-01-15T17:20:45;9.07;;;4.23;;
38397;SDS011;24179;52.094;4.408;2024-01-15T17:23:46;10.53;;;4.50;;
38397;SDS011;24179;52.094;4.408;2024-01-15T17:26:47;10.23;;;4.05;;
38397;SDS011;24179;52.094;4.408;2024-01-15T17:29:48;11.98;;;4.13;;
38397;SDS011;24179;52.094;4.408;2024-01-15T17:32:50;13.05;;;4.10;;
38397;SDS011;24179;52.094;4.408;2024-01-15T17:35:51;13.63;;;4.13;;
38397;SDS011;24179;52.094;4.408;2024-01-15T17:38:52;11.43;;;4.10;;
38397;SDS011;24179;52.094;4.408;2024-01-15T17:41:53;8.23;;;3.97;;
38397;SDS011;24179;52.094;4.408;2024-01-15T17:44:53;14.10;;;4.10;;
38397;SDS011;24179;52.094;4.408;2024-01-15T17:47:54;15.93;;;4.50;;
38397;SDS011;24179;52.094;4.408;2024-01-15T17:50:54;17.03;;;3.50;;
38397;SDS011;24179;52.094;4.408;2024-01-15T17:53:55;14.73;;;4.00;;
38397;SDS011;24179;52.094;4.408;2024-01-15T17:56:56;9.80;;;4.03;;
38397;SDS011;24179;52.094;4.408;2024-01-15T17:59:57;9.75;;;3.65;;
38397;SDS011;24179;52.094;4.408;2024-01-15T18:02:57;12.23;;;3.63;;
38397;SDS011;24179;52.094;4.408;2024-01-15T18:05:58;10.33;;;3.40;;
38397;SDS011;24179;52.094;4.408;2024-01-15T18:08:58;7.73;;;3.50;;
38397;SDS011;24179;52.094;4.408;2024-01-15T18:11:59;3.53;;;2.87;;
38397;SDS011;24179;52.094;4.408;2024-01-15T18:15:01;6.72;;;3.25;;
38397;SDS011;24179;52.094;4.408;2024-01-15T18:18:02;12.10;;;3.30;;
38397;SDS011;24179;52.094;4.408;2024-01-15T18:21:02;10.27;;;3.30;;